createdAt,value
2023-07-12T00:00:43.898Z,75.10
2023-07-12T00:01:44.789Z,75.24
2023-07-12T00:02:45.696Z,74.54
2023-07-12T00:03:46.747Z,74.74
2023-07-12T00:04:47.113Z,74.34
2023-07-12T00:05:47.993Z,74.64
2023-07-12T00:06:48.894Z,75.54
2023-07-12T00:07:49.754Z,75.34
2023-07-12T00:08:50.645Z,76.34
2023-07-12T00:09:51.521Z,74.84
2023-07-12T00:10:52.393Z,75.14
2023-07-12T00:11:53.266Z,75.54
2023-07-12T00:12:54.144Z,75.64
2023-07-12T00:13:55.041Z,75.64
2023-07-12T00:14:55.923Z,76.04
2023-07-12T00:15:56.796Z,76.54
2023-07-12T00:16:57.732Z,76.98
2023-07-12T00:17:58.685Z,76.28
2023-07-12T00:18:59.663Z,76.58
2023-07-12T00:20:00.188Z,76.78
2023-07-12T00:21:01.018Z,76.48
2023-07-12T00:22:01.918Z,76.68
2023-07-12T00:23:02.795Z,76.78
2023-07-12T00:24:03.700Z,76.89
2023-07-12T00:25:04.549Z,70.76
2023-07-12T00:26:05.428Z,69.76
2023-07-12T00:27:06.311Z,69.46
2023-07-12T00:28:07.203Z,72.87
2023-07-12T00:29:08.086Z,72.67
2023-07-12T00:30:08.958Z,73.67
2023-07-12T00:31:10.241Z,73.87
2023-07-12T00:32:10.336Z,73.17
2023-07-12T00:33:11.230Z,72.06
2023-07-12T00:34:12.112Z,71.97
2023-07-12T00:35:12.995Z,71.97
2023-07-12T00:36:13.901Z,73.07
2023-07-12T00:37:14.780Z,73.47
2023-07-12T00:38:15.643Z,74.57
2023-07-12T00:39:16.532Z,74.57
2023-07-12T00:40:17.428Z,73.27
2023-07-12T00:41:18.287Z,72.97
2023-07-12T00:42:19.188Z,72.77
2023-07-12T00:43:20.067Z,72.67
2023-07-12T00:44:20.963Z,73.27
2023-07-12T00:45:21.828Z,72.37
2023-07-12T00:46:22.723Z,69.96
2023-07-12T00:47:23.641Z,68.55
2023-07-12T00:48:24.482Z,66.75
2023-07-12T00:49:25.377Z,66.64
2023-07-12T00:50:26.292Z,67.32
2023-07-12T00:51:27.176Z,65.31
2023-07-12T00:52:28.090Z,65.21
2023-07-12T00:53:28.924Z,65.21
2023-07-12T00:54:29.822Z,65.58
2023-07-12T00:55:30.718Z,65.28
2023-07-12T00:56:31.610Z,65.48
2023-07-12T00:57:32.495Z,65.48
2023-07-12T00:58:33.373Z,64.98
2023-07-12T00:59:34.239Z,64.88
2023-07-12T01:00:35.126Z,65.28
2023-07-12T01:01:36.057Z,64.18
2023-07-12T01:02:37.056Z,64.37
2023-07-12T01:03:37.577Z,64.45
2023-07-12T01:04:38.477Z,64.45
2023-07-12T01:05:39.357Z,63.75
2023-07-12T01:06:40.265Z,64.15
2023-07-12T01:07:41.183Z,63.45
2023-07-12T01:08:42.026Z,63.45
2023-07-12T01:09:42.898Z,63.24
2023-07-12T01:10:43.800Z,63.14
2023-07-12T01:11:44.674Z,62.04
2023-07-12T01:12:45.548Z,61.94
2023-07-12T01:13:46.417Z,61.64
2023-07-12T01:14:47.304Z,61.61
2023-07-12T01:15:48.225Z,61.21
2023-07-12T01:16:49.098Z,60.51
2023-07-12T01:17:50.014Z,60.81
2023-07-12T01:18:51.048Z,60.51
2023-07-12T01:19:51.421Z,60.51
2023-07-12T01:20:52.304Z,60.68
2023-07-12T01:21:53.182Z,60.78
2023-07-12T01:22:54.073Z,60.88
2023-07-12T01:23:54.945Z,61.08
2023-07-12T01:24:55.815Z,60.58
2023-07-12T01:25:56.712Z,60.68
2023-07-12T01:26:59.293Z,60.28
2023-07-12T01:27:58.185Z,60.08
2023-07-12T01:28:59.069Z,60.48
2023-07-12T01:29:59.957Z,60.68
2023-07-12T01:31:00.836Z,60.08
2023-07-12T01:32:01.859Z,60.08
2023-07-12T01:33:02.276Z,59.98
2023-07-12T01:34:03.120Z,60.28
2023-07-12T01:35:04.011Z,60.18
2023-07-12T01:36:04.879Z,60.08
2023-07-12T01:37:05.800Z,60.18
2023-07-12T01:38:06.690Z,60.38
2023-07-12T01:39:07.562Z,60.28
2023-07-12T01:40:08.486Z,60.28
2023-07-12T01:41:09.755Z,60.08
2023-07-12T01:42:10.252Z,60.18
2023-07-12T01:43:11.153Z,60.08
2023-07-12T01:44:12.054Z,60.38
2023-07-12T01:45:12.923Z,60.18
2023-07-12T01:46:13.849Z,60.28
2023-07-12T01:47:14.687Z,60.28
2023-07-12T01:48:15.565Z,60.28
2023-07-12T01:49:16.447Z,60.18
2023-07-12T01:50:17.335Z,60.38
2023-07-12T01:51:18.236Z,60.18
2023-07-12T01:52:19.089Z,60.38
2023-07-12T01:53:19.980Z,60.38
2023-07-12T01:54:20.863Z,60.08
2023-07-12T01:55:21.800Z,60.18
2023-07-12T01:56:22.684Z,59.78
2023-07-12T01:57:23.560Z,59.98
2023-07-12T01:58:24.540Z,59.98
2023-07-12T01:59:25.427Z,60.18
2023-07-12T02:00:26.301Z,59.98
2023-07-12T02:01:27.229Z,59.98
2023-07-12T02:02:28.148Z,60.08
2023-07-12T02:03:29.190Z,60.28
2023-07-12T02:04:29.663Z,60.18
2023-07-12T02:05:30.580Z,60.28
2023-07-12T02:06:31.436Z,60.28
2023-07-12T02:07:32.347Z,60.38
2023-07-12T02:08:33.254Z,60.58
2023-07-12T02:09:34.122Z,60.68
2023-07-12T02:10:34.983Z,60.68
2023-07-12T02:11:35.874Z,60.88
2023-07-12T02:12:36.750Z,60.78
2023-07-12T02:13:37.622Z,60.88
2023-07-12T02:14:38.500Z,60.91
2023-07-12T02:15:39.399Z,61.11
2023-07-12T02:16:40.263Z,61.31
2023-07-12T02:17:41.233Z,61.31
2023-07-12T02:18:41.657Z,61.41
2023-07-12T02:19:42.518Z,61.51
2023-07-12T02:20:43.406Z,61.71
2023-07-12T02:21:44.281Z,61.81
2023-07-12T02:22:45.180Z,61.71
2023-07-12T02:23:46.085Z,61.81
2023-07-12T02:24:46.929Z,63.42
2023-07-12T02:25:47.971Z,64.62
2023-07-12T02:26:48.345Z,64.81
2023-07-12T02:27:49.227Z,64.95
2023-07-12T02:28:50.144Z,65.45
2023-07-12T02:29:50.980Z,65.55
2023-07-12T02:30:51.860Z,65.48
2023-07-12T02:31:52.788Z,65.78
2023-07-12T02:32:53.658Z,65.98
2023-07-12T02:33:54.602Z,66.38
2023-07-12T02:34:55.453Z,66.78
2023-07-12T02:35:56.334Z,66.71
2023-07-12T02:36:57.222Z,66.61
2023-07-12T02:37:58.106Z,66.91
2023-07-12T02:38:59.014Z,67.11
2023-07-12T02:39:59.875Z,67.32
2023-07-12T02:41:00.762Z,67.42
2023-07-12T02:42:01.658Z,66.91
2023-07-12T02:43:02.545Z,66.01
2023-07-12T02:44:03.432Z,65.51
2023-07-12T02:45:04.318Z,65.31
2023-07-12T02:46:05.252Z,65.51
2023-07-12T02:47:06.111Z,65.21
2023-07-12T02:48:07.024Z,65.31
2023-07-12T02:49:07.854Z,65.51
2023-07-12T02:50:08.744Z,65.51
2023-07-12T02:51:10.078Z,65.41
2023-07-12T02:52:10.315Z,65.41
2023-07-12T02:53:11.179Z,65.41
2023-07-12T02:54:12.091Z,65.31
2023-07-12T02:55:12.960Z,65.31
2023-07-12T02:56:13.829Z,65.41
2023-07-12T02:57:14.705Z,65.51
2023-07-12T02:58:15.581Z,65.41
2023-07-12T02:59:16.516Z,65.61
2023-07-12T03:00:17.360Z,65.61
2023-07-12T03:01:18.302Z,65.61
2023-07-12T03:02:19.154Z,65.71
2023-07-12T03:03:20.011Z,65.21
2023-07-12T03:04:20.939Z,65.41
2023-07-12T03:05:21.886Z,65.21
2023-07-12T03:06:22.702Z,65.31
2023-07-12T03:07:23.581Z,65.41
2023-07-12T03:08:24.464Z,64.91
2023-07-12T03:09:25.372Z,65.01
2023-07-12T03:10:26.223Z,65.11
2023-07-12T03:11:27.111Z,65.31
2023-07-12T03:12:27.981Z,65.31
2023-07-12T03:13:28.810Z,65.41
2023-07-12T03:14:29.706Z,65.21
2023-07-12T03:15:30.585Z,65.11
2023-07-12T03:16:31.453Z,65.31
2023-07-12T03:17:32.257Z,65.31
2023-07-12T03:18:33.222Z,65.11
2023-07-12T03:19:33.643Z,65.31
2023-07-12T03:20:34.466Z,65.21
2023-07-12T03:21:35.355Z,65.21
2023-07-12T03:22:36.217Z,65.31
2023-07-12T03:23:37.106Z,65.31
2023-07-12T03:24:37.974Z,65.41
2023-07-12T03:25:38.766Z,65.61
2023-07-12T03:26:39.599Z,65.31
2023-07-12T03:27:40.427Z,65.41
2023-07-12T03:28:41.272Z,65.31
2023-07-12T03:29:42.086Z,65.31
2023-07-12T03:30:42.957Z,65.31
2023-07-12T03:31:43.803Z,65.31
2023-07-12T03:32:44.647Z,65.31
2023-07-12T03:33:45.436Z,65.11
2023-07-12T03:34:46.257Z,65.01
2023-07-12T03:35:47.086Z,64.81
2023-07-12T03:36:47.916Z,64.91
2023-07-12T03:37:48.746Z,65.11
2023-07-12T03:38:49.577Z,65.41
2023-07-12T03:39:50.424Z,65.41
2023-07-12T03:40:51.229Z,65.41
2023-07-12T03:41:52.053Z,65.51
2023-07-12T03:42:52.895Z,65.41
2023-07-12T03:43:53.884Z,65.61
2023-07-12T03:44:54.657Z,65.61
2023-07-12T03:45:55.478Z,65.91
2023-07-12T03:46:56.328Z,66.14
2023-07-12T03:47:57.192Z,66.24
2023-07-12T03:48:58.032Z,66.24
2023-07-12T03:49:58.903Z,66.35
2023-07-12T03:50:59.693Z,66.75
2023-07-12T03:52:00.523Z,66.55
2023-07-12T03:53:01.369Z,66.55
2023-07-12T03:54:02.184Z,66.75
2023-07-12T03:55:03.022Z,67.05
2023-07-12T03:56:03.832Z,67.05
2023-07-12T03:57:04.655Z,67.05
2023-07-12T03:58:05.475Z,67.05
2023-07-12T03:59:06.304Z,67.25
2023-07-12T04:00:07.139Z,67.25
2023-07-12T04:01:08.044Z,67.28
2023-07-12T04:02:08.920Z,67.28
2023-07-12T04:03:09.809Z,67.28
2023-07-12T04:04:10.657Z,66.88
2023-07-12T04:05:11.509Z,66.88
2023-07-12T04:06:12.358Z,66.67
2023-07-12T04:07:13.178Z,66.88
2023-07-12T04:08:14.006Z,66.88
2023-07-12T04:09:14.823Z,66.67
2023-07-12T04:10:15.669Z,66.67
2023-07-12T04:11:16.477Z,66.67
2023-07-12T04:12:17.304Z,66.67
2023-07-12T04:13:18.122Z,66.58
2023-07-12T04:14:18.950Z,66.58
2023-07-12T04:15:19.810Z,66.58
2023-07-12T04:16:20.682Z,66.64
2023-07-12T04:17:21.502Z,66.85
2023-07-12T04:18:22.437Z,66.85
2023-07-12T04:19:22.851Z,67.14
2023-07-12T04:20:23.692Z,67.14
2023-07-12T04:21:24.516Z,67.25
2023-07-12T04:22:25.341Z,67.35
2023-07-12T04:23:26.157Z,67.35
2023-07-12T04:24:27.014Z,67.45
2023-07-12T04:25:27.896Z,67.55
2023-07-12T04:26:28.666Z,67.75
2023-07-12T04:27:29.493Z,67.55
2023-07-12T04:28:30.319Z,67.48
2023-07-12T04:29:31.141Z,67.38
2023-07-12T04:30:31.976Z,67.48
2023-07-12T04:31:32.863Z,67.68
2023-07-12T04:32:33.763Z,67.38
2023-07-12T04:33:34.595Z,67.38
2023-07-12T04:34:39.189Z,67.48
2023-07-12T04:35:35.973Z,67.68
2023-07-12T04:36:36.796Z,67.58
2023-07-12T04:37:37.613Z,67.98
2023-07-12T04:38:38.437Z,67.98
2023-07-12T04:39:39.279Z,68.18
2023-07-12T04:40:40.128Z,68.08
2023-07-12T04:41:40.922Z,67.98
2023-07-12T04:42:41.756Z,67.58
2023-07-12T04:43:42.569Z,67.68
2023-07-12T04:44:43.407Z,67.98
2023-07-12T04:45:44.223Z,68.18
2023-07-12T04:46:45.072Z,68.18
2023-07-12T04:47:45.947Z,67.98
2023-07-12T04:48:46.754Z,67.98
2023-07-12T04:49:47.591Z,68.29
2023-07-12T04:50:48.415Z,68.38
2023-07-12T04:51:49.439Z,68.49
2023-07-12T04:52:50.213Z,68.79
2023-07-12T04:53:51.038Z,68.82
2023-07-12T04:54:51.872Z,69.02
2023-07-12T04:55:52.726Z,68.92
2023-07-12T04:56:53.515Z,69.12
2023-07-12T04:57:54.333Z,68.92
2023-07-12T04:58:55.170Z,68.82
2023-07-12T04:59:55.998Z,68.68
2023-07-12T05:00:57.145Z,67.78
2023-07-12T05:01:57.661Z,67.88
2023-07-12T05:02:58.674Z,67.98
2023-07-12T05:03:59.019Z,67.98
2023-07-12T05:04:59.822Z,68.29
2023-07-12T05:06:09.651Z,68.68
2023-07-12T05:07:02.370Z,68.18
2023-07-12T05:08:02.192Z,68.38
2023-07-12T05:09:03.031Z,68.49
2023-07-12T05:10:03.852Z,68.49
2023-07-12T05:11:04.691Z,68.59
2023-07-12T05:12:05.500Z,68.49
2023-07-12T05:13:06.379Z,68.55
2023-07-12T05:14:07.187Z,68.55
2023-07-12T05:15:08.017Z,68.55
2023-07-12T05:16:08.923Z,68.65
2023-07-12T05:17:09.727Z,67.95
2023-07-12T05:18:10.659Z,67.14
2023-07-12T05:19:11.081Z,67.35
2023-07-12T05:20:11.972Z,66.85
2023-07-12T05:21:12.786Z,67.05
2023-07-12T05:22:13.602Z,66.75
2023-07-12T05:23:14.440Z,66.91
2023-07-12T05:24:15.258Z,67.02
2023-07-12T05:25:16.092Z,67.02
2023-07-12T05:26:16.930Z,67.22
2023-07-12T05:27:17.742Z,65.91
2023-07-12T05:28:18.573Z,65.91
2023-07-12T05:29:19.394Z,66.01
2023-07-12T05:30:20.215Z,66.41
2023-07-12T05:31:21.066Z,66.61
2023-07-12T05:32:21.867Z,66.71
2023-07-12T05:33:22.695Z,66.52
2023-07-12T05:34:23.513Z,66.71
2023-07-12T05:35:24.342Z,66.91
2023-07-12T05:36:25.169Z,67.22
2023-07-12T05:37:30.284Z,67.52
2023-07-12T05:38:27.708Z,67.11
2023-07-12T05:39:27.530Z,67.11
2023-07-12T05:40:28.358Z,67.22
2023-07-12T05:41:29.216Z,67.02
2023-07-12T05:42:30.032Z,66.41
2023-07-12T05:43:30.850Z,65.71
2023-07-12T05:44:31.673Z,65.61
2023-07-12T05:45:32.500Z,65.38
2023-07-12T05:46:33.376Z,65.48
2023-07-12T05:47:34.259Z,65.28
2023-07-12T05:48:35.088Z,65.28
2023-07-12T05:49:35.894Z,65.08
2023-07-12T05:50:36.735Z,64.78
2023-07-12T05:51:37.541Z,64.78
2023-07-12T05:52:38.400Z,64.88
2023-07-12T05:53:39.192Z,64.78
2023-07-12T05:54:40.018Z,64.98
2023-07-12T05:55:40.848Z,65.18
2023-07-12T05:56:41.739Z,65.18
2023-07-12T05:57:42.512Z,65.58
2023-07-12T05:58:43.334Z,65.28
2023-07-12T05:59:44.157Z,65.38
2023-07-12T06:00:44.996Z,65.38
2023-07-12T06:01:45.839Z,65.58
2023-07-12T06:02:46.767Z,65.58
2023-07-12T06:03:47.619Z,65.78
2023-07-12T06:04:48.473Z,66.08
2023-07-12T06:05:49.310Z,65.98
2023-07-12T06:06:50.135Z,66.48
2023-07-12T06:07:50.968Z,66.41
2023-07-12T06:08:51.795Z,66.41
2023-07-12T06:09:52.621Z,66.71
2023-07-12T06:10:53.458Z,66.41
2023-07-12T06:11:54.302Z,66.61
2023-07-12T06:12:55.098Z,67.02
2023-07-12T06:13:55.967Z,66.82
2023-07-12T06:14:56.769Z,66.82
2023-07-12T06:15:57.593Z,66.82
2023-07-12T06:16:58.454Z,66.71
2023-07-12T06:17:59.323Z,67.42
2023-07-12T06:19:00.186Z,67.52
2023-07-12T06:20:00.996Z,68.92
2023-07-12T06:21:01.837Z,69.82
2023-07-12T06:22:02.640Z,70.03
2023-07-12T06:23:03.463Z,71.33
2023-07-12T06:24:04.285Z,72.43
2023-07-12T06:25:05.124Z,74.44
2023-07-12T06:26:05.949Z,75.24
2023-07-12T06:27:06.801Z,75.34
2023-07-12T06:28:07.603Z,76.89
2023-07-12T06:29:08.442Z,76.18
2023-07-12T06:30:09.277Z,77.19
2023-07-12T06:31:10.506Z,77.99
2023-07-12T06:32:10.993Z,77.42
2023-07-12T06:33:11.817Z,78.12
2023-07-12T06:34:12.655Z,78.42
2023-07-12T06:35:13.471Z,78.63
2023-07-12T06:36:14.293Z,78.03
2023-07-12T06:37:15.139Z,78.77
2023-07-12T06:38:15.943Z,79.17
2023-07-12T06:39:16.780Z,79.77
2023-07-12T06:40:17.596Z,79.37
2023-07-12T06:41:18.429Z,79.97
2023-07-12T06:42:19.271Z,79.97
2023-07-12T06:43:20.083Z,80.37
2023-07-12T06:44:20.908Z,82.58
2023-07-12T06:45:21.745Z,81.48
2023-07-12T06:46:22.345Z,80.51
2023-07-12T06:47:23.173Z,81.01
2023-07-12T06:48:23.994Z,82.72
2023-07-12T06:49:24.818Z,81.21
2023-07-12T06:50:25.654Z,81.72
2023-07-12T06:51:26.467Z,81.82
2023-07-12T06:52:27.300Z,80.71
2023-07-12T06:53:28.141Z,80.65
2023-07-12T06:54:29.503Z,81.96
2023-07-12T06:55:29.762Z,81.15
2023-07-12T06:56:30.586Z,81.56
2023-07-12T06:57:31.434Z,81.56
2023-07-12T06:58:32.245Z,81.46
2023-07-12T06:59:33.086Z,81.56
2023-07-12T07:00:33.885Z,81.96
2023-07-12T07:01:34.758Z,81.56
2023-07-12T07:02:35.616Z,81.76
2023-07-12T07:03:36.459Z,82.16
2023-07-12T07:04:37.323Z,82.66
2023-07-12T07:05:38.143Z,82.36
2023-07-12T07:06:38.972Z,82.46
2023-07-12T07:07:39.814Z,82.70
2023-07-12T07:08:40.662Z,83.11
2023-07-12T07:09:41.454Z,83.00
2023-07-12T07:10:42.275Z,83.11
2023-07-12T07:11:43.109Z,82.90
2023-07-12T07:12:44.002Z,82.50
2023-07-12T07:13:44.781Z,82.90
2023-07-12T07:14:45.606Z,82.80
2023-07-12T07:15:46.430Z,82.30
2023-07-12T07:16:47.277Z,81.49
2023-07-12T07:17:48.136Z,81.19
2023-07-12T07:18:49.065Z,80.79
2023-07-12T07:19:49.903Z,80.69
2023-07-12T07:20:50.727Z,81.39
2023-07-12T07:21:51.564Z,81.39
2023-07-12T07:22:52.376Z,81.70
2023-07-12T07:23:53.208Z,81.70
2023-07-12T07:24:54.040Z,82.40
2023-07-12T07:25:54.861Z,81.39
2023-07-12T07:26:55.693Z,81.59
2023-07-12T07:27:56.535Z,81.79
2023-07-12T07:28:57.348Z,80.79
2023-07-12T07:29:58.167Z,80.58
2023-07-12T07:30:59.019Z,79.58
2023-07-12T07:31:59.850Z,80.08
2023-07-12T07:33:00.716Z,79.68
2023-07-12T07:34:01.518Z,79.79
2023-07-12T07:35:02.362Z,79.88
2023-07-12T07:36:03.191Z,79.79
2023-07-12T07:37:04.020Z,80.69
2023-07-12T07:38:04.856Z,80.93
2023-07-12T07:39:05.671Z,81.23
2023-07-12T07:40:06.501Z,81.23
2023-07-12T07:41:07.323Z,81.63
2023-07-12T07:42:08.149Z,81.53
2023-07-12T07:43:09.044Z,81.13
2023-07-12T07:44:09.818Z,78.61
2023-07-12T07:45:10.625Z,78.41
2023-07-12T07:46:11.796Z,77.91
2023-07-12T07:47:12.242Z,77.40
2023-07-12T07:48:13.072Z,75.39
2023-07-12T07:49:13.909Z,76.06
2023-07-12T07:50:14.732Z,75.76
2023-07-12T07:51:15.550Z,76.56
2023-07-12T07:52:16.377Z,76.46
2023-07-12T07:53:17.194Z,77.17
2023-07-12T07:54:18.032Z,75.96
2023-07-12T07:55:18.863Z,76.06
2023-07-12T07:56:19.676Z,77.17
2023-07-12T07:57:20.492Z,78.67
2023-07-12T07:58:21.343Z,79.88
2023-07-12T07:59:22.144Z,80.19
2023-07-12T08:00:22.972Z,80.69
2023-07-12T08:01:23.791Z,80.79
2023-07-12T08:02:24.750Z,80.69
2023-07-12T08:03:25.666Z,80.58
2023-07-12T08:04:26.802Z,81.13
2023-07-12T08:05:27.267Z,81.33
2023-07-12T08:06:28.099Z,82.24
2023-07-12T08:07:28.925Z,81.73
2023-07-12T08:08:29.789Z,82.24
2023-07-12T08:09:30.604Z,80.83
2023-07-12T08:10:31.447Z,80.83
2023-07-12T08:11:33.304Z,80.73
2023-07-12T08:12:33.156Z,81.33
2023-07-12T08:13:34.021Z,81.33
2023-07-12T08:14:34.824Z,81.53
2023-07-12T08:15:35.640Z,81.84
2023-07-12T08:16:36.482Z,81.84
2023-07-12T08:17:37.606Z,81.23
2023-07-12T08:18:38.096Z,81.43
2023-07-12T08:19:38.966Z,80.69
2023-07-12T08:20:39.792Z,81.70
2023-07-12T08:21:40.611Z,81.49
2023-07-12T08:22:41.450Z,80.79
2023-07-12T08:23:42.276Z,80.49
2023-07-12T08:24:43.100Z,80.49
2023-07-12T08:25:43.920Z,79.18
2023-07-12T08:26:51.175Z,79.28
2023-07-12T08:27:46.478Z,80.39
2023-07-12T08:28:46.334Z,79.28
2023-07-12T08:29:47.120Z,79.08
2023-07-12T08:30:47.951Z,79.38
2023-07-12T08:31:48.894Z,79.68
2023-07-12T08:32:49.763Z,79.58
2023-07-12T08:33:50.543Z,79.38
2023-07-12T08:34:51.366Z,77.83
2023-07-12T08:35:52.221Z,78.64
2023-07-12T08:36:53.036Z,77.94
2023-07-12T08:37:53.853Z,78.03
2023-07-12T08:38:54.678Z,77.83
2023-07-12T08:39:55.495Z,78.03
2023-07-12T08:40:56.328Z,77.43
2023-07-12T08:41:57.147Z,75.82
2023-07-12T08:42:57.975Z,75.82
2023-07-12T08:43:58.873Z,76.29
2023-07-12T08:44:59.629Z,76.69
2023-07-12T08:46:00.510Z,77.09
2023-07-12T08:47:01.337Z,76.29
2023-07-12T08:48:02.199Z,77.09
2023-07-12T08:49:03.004Z,75.85
2023-07-12T08:50:03.816Z,76.15
2023-07-12T08:51:04.652Z,76.96
2023-07-12T08:52:05.469Z,76.86
2023-07-12T08:53:06.296Z,76.45
2023-07-12T08:54:07.118Z,76.82
2023-07-12T08:55:07.943Z,77.12
2023-07-12T08:56:08.770Z,76.42
2023-07-12T08:57:09.597Z,73.57
2023-07-12T08:58:10.425Z,74.57
2023-07-12T08:59:11.287Z,73.87
2023-07-12T09:00:12.081Z,73.03
2023-07-12T09:01:13.166Z,73.74
2023-07-12T09:02:13.853Z,71.93
2023-07-12T09:03:14.679Z,72.30
2023-07-12T09:04:15.505Z,72.60
2023-07-12T09:05:16.381Z,71.80
2023-07-12T09:06:17.206Z,72.30
2023-07-12T09:07:18.039Z,72.77
2023-07-12T09:08:18.853Z,73.77
2023-07-12T09:09:19.677Z,72.66
2023-07-12T09:10:20.502Z,71.77
2023-07-12T09:11:21.343Z,71.63
2023-07-12T09:12:22.165Z,72.03
2023-07-12T09:13:22.975Z,71.03
2023-07-12T09:14:23.870Z,72.03
2023-07-12T09:15:24.648Z,71.69
2023-07-12T09:16:25.644Z,70.59
2023-07-12T09:17:26.465Z,70.89
2023-07-12T09:18:27.314Z,70.50
2023-07-12T09:19:28.116Z,70.09
2023-07-12T09:20:28.983Z,70.06
2023-07-12T09:21:29.785Z,69.96
2023-07-12T09:22:30.613Z,69.56
2023-07-12T09:23:31.437Z,68.36
2023-07-12T09:24:32.292Z,68.76
2023-07-12T09:25:33.102Z,69.53
2023-07-12T09:26:33.937Z,69.32
2023-07-12T09:27:34.886Z,68.02
2023-07-12T09:28:35.664Z,67.93
2023-07-12T09:29:36.515Z,67.69
2023-07-12T09:30:37.311Z,67.69
2023-07-12T09:31:38.163Z,67.19
2023-07-12T09:32:39.014Z,67.09
2023-07-12T09:33:39.813Z,66.36
2023-07-12T09:34:40.648Z,66.66
2023-07-12T09:35:41.468Z,66.76
2023-07-12T09:36:42.297Z,65.36
2023-07-12T09:37:43.110Z,65.53
2023-07-12T09:38:43.957Z,66.63
2023-07-12T09:39:44.789Z,66.93
2023-07-12T09:40:45.613Z,67.23
2023-07-12T09:41:46.442Z,65.60
2023-07-12T09:42:47.258Z,66.39
2023-07-12T09:43:48.110Z,65.70
2023-07-12T09:44:48.950Z,64.80
2023-07-12T09:46:09.249Z,64.77
2023-07-12T09:46:51.518Z,64.77
2023-07-12T09:47:51.359Z,64.07
2023-07-12T09:48:52.153Z,64.87
2023-07-12T09:49:52.976Z,64.07
2023-07-12T09:50:53.803Z,63.04
2023-07-12T09:51:54.631Z,64.34
2023-07-12T09:52:55.459Z,63.14
2023-07-12T09:53:56.282Z,62.94
2023-07-12T09:54:57.100Z,63.51
2023-07-12T09:55:57.916Z,63.51
2023-07-12T09:56:58.762Z,63.11
2023-07-12T09:57:59.663Z,61.19
2023-07-12T09:59:00.469Z,60.49
2023-07-12T10:00:01.475Z,59.99
2023-07-12T10:01:02.287Z,60.46
2023-07-12T10:02:03.105Z,60.36
2023-07-12T10:03:04.034Z,59.27
2023-07-12T10:04:04.831Z,58.87
2023-07-12T10:05:05.688Z,57.57
2023-07-12T10:06:06.585Z,58.97
2023-07-12T10:07:07.451Z,59.17
2023-07-12T10:08:08.270Z,60.16
2023-07-12T10:09:09.095Z,59.94
2023-07-12T10:10:09.927Z,60.24
2023-07-12T10:11:10.972Z,60.43
2023-07-12T10:12:11.379Z,58.14
2023-07-12T10:13:12.210Z,58.74
2023-07-12T10:14:13.059Z,57.24
2023-07-12T10:15:13.890Z,58.74
2023-07-12T10:16:14.683Z,58.74
2023-07-12T10:17:15.695Z,59.44
2023-07-12T10:18:16.134Z,59.70
2023-07-12T10:19:17.004Z,58.11
2023-07-12T10:20:17.841Z,58.01
2023-07-12T10:21:18.744Z,59.21
2023-07-12T10:22:19.563Z,59.51
2023-07-12T10:23:20.635Z,57.99
2023-07-12T10:24:20.952Z,57.89
2023-07-12T10:25:21.749Z,57.79
2023-07-12T10:26:22.586Z,57.59
2023-07-12T10:27:23.426Z,58.88
2023-07-12T10:28:24.235Z,57.89
2023-07-12T10:29:25.168Z,56.00
2023-07-12T10:30:26.070Z,55.80
2023-07-12T10:31:26.966Z,56.00
2023-07-12T10:32:27.778Z,56.89
2023-07-12T10:33:28.597Z,57.49
2023-07-12T10:34:31.414Z,57.99
2023-07-12T10:35:29.935Z,57.26
2023-07-12T10:36:30.751Z,56.77
2023-07-12T10:37:31.629Z,56.67
2023-07-12T10:38:32.455Z,57.17
2023-07-12T10:39:33.369Z,56.57
2023-07-12T10:40:34.246Z,56.17
2023-07-12T10:41:35.099Z,56.04
2023-07-12T10:42:35.933Z,56.84
2023-07-12T10:43:36.777Z,56.14
2023-07-12T10:44:37.720Z,56.04
2023-07-12T10:45:38.648Z,56.54
2023-07-12T10:46:39.472Z,56.74
2023-07-12T10:47:40.372Z,56.94
2023-07-12T10:48:41.199Z,56.61
2023-07-12T10:49:42.085Z,57.11
2023-07-12T10:50:42.924Z,56.61
2023-07-12T10:51:45.713Z,55.91
2023-07-12T10:52:44.701Z,55.99
2023-07-12T10:53:45.562Z,55.40
2023-07-12T10:54:46.443Z,56.09
2023-07-12T10:55:47.237Z,54.50
2023-07-12T10:56:48.067Z,54.70
2023-07-12T10:57:48.894Z,54.70
2023-07-12T10:58:49.725Z,53.61
2023-07-12T10:59:50.576Z,53.70
2023-07-12T11:00:51.535Z,54.21
2023-07-12T11:01:52.450Z,55.69
2023-07-12T11:02:53.070Z,56.09
2023-07-12T11:03:53.500Z,54.70
2023-07-12T11:04:54.352Z,54.10
2023-07-12T11:05:55.188Z,53.31
2023-07-12T11:06:55.992Z,53.31
2023-07-12T11:07:56.825Z,53.61
2023-07-12T11:08:57.665Z,53.61
2023-07-12T11:09:58.488Z,54.60
2023-07-12T11:10:59.316Z,53.61
2023-07-12T11:12:00.159Z,54.10
2023-07-12T11:13:00.961Z,53.11
2023-07-12T11:14:01.808Z,53.51
2023-07-12T11:15:05.190Z,54.08
2023-07-12T11:16:03.444Z,53.38
2023-07-12T11:17:04.289Z,53.68
2023-07-12T11:18:05.286Z,53.88
2023-07-12T11:19:05.791Z,53.68
2023-07-12T11:20:06.622Z,53.16
2023-07-12T11:21:07.780Z,52.37
2023-07-12T11:22:08.275Z,52.26
2023-07-12T11:23:09.103Z,52.26
2023-07-12T11:24:09.932Z,52.07
2023-07-12T11:25:10.747Z,51.87
2023-07-12T11:26:11.575Z,53.43
2023-07-12T11:27:12.394Z,53.33
2023-07-12T11:28:13.230Z,53.53
2023-07-12T11:29:14.051Z,54.10
2023-07-12T11:30:14.883Z,53.11
2023-07-12T11:31:15.907Z,53.31
2023-07-12T11:32:16.230Z,53.80
2023-07-12T11:33:17.050Z,52.22
2023-07-12T11:34:17.942Z,52.09
2023-07-12T11:35:18.714Z,51.30
2023-07-12T11:36:19.547Z,51.10
2023-07-12T11:37:20.374Z,51.10
2023-07-12T11:38:21.201Z,50.51
2023-07-12T11:39:22.025Z,51.12
2023-07-12T11:40:22.842Z,50.93
2023-07-12T11:41:23.667Z,50.53
2023-07-12T11:42:24.510Z,50.95
2023-07-12T11:43:25.445Z,51.05
2023-07-12T11:44:25.836Z,51.54
2023-07-12T11:45:26.710Z,51.35
2023-07-12T11:46:27.674Z,52.04
2023-07-12T11:47:28.518Z,52.44
2023-07-12T11:48:29.342Z,52.24
2023-07-12T11:49:30.135Z,52.54
2023-07-12T11:50:30.963Z,53.11
2023-07-12T11:51:31.800Z,53.50
2023-07-12T11:52:32.635Z,51.62
2023-07-12T11:53:33.467Z,51.92
2023-07-12T11:54:34.300Z,52.12
2023-07-12T11:55:35.114Z,52.71
2023-07-12T11:56:35.950Z,52.81
2023-07-12T11:57:36.784Z,52.61
2023-07-12T11:58:37.607Z,51.23
2023-07-12T11:59:38.425Z,50.46
2023-07-12T12:00:39.258Z,50.76
2023-07-12T12:01:40.109Z,51.35
2023-07-12T12:02:40.933Z,52.14
2023-07-12T12:03:41.835Z,52.34
2023-07-12T12:04:42.828Z,51.94
2023-07-12T12:05:43.412Z,51.94
2023-07-12T12:06:44.239Z,52.44
2023-07-12T12:07:45.056Z,52.86
2023-07-12T12:08:45.889Z,53.16
2023-07-12T12:09:46.512Z,53.06
2023-07-12T12:10:47.352Z,53.06
2023-07-12T12:11:48.170Z,52.56
2023-07-12T12:12:49.068Z,52.59
2023-07-12T12:13:49.884Z,53.19
2023-07-12T12:14:50.819Z,53.28
2023-07-12T12:15:51.646Z,52.98
2023-07-12T12:16:52.493Z,53.28
2023-07-12T12:17:53.594Z,53.78
2023-07-12T12:18:54.302Z,53.48
2023-07-12T12:19:55.051Z,53.28
2023-07-12T12:20:55.800Z,53.38
2023-07-12T12:21:56.418Z,53.78
2023-07-12T12:22:57.391Z,53.56
2023-07-12T12:23:58.193Z,53.66
2023-07-12T12:24:59.059Z,53.16
2023-07-12T12:25:59.898Z,53.06
2023-07-12T12:27:11.837Z,53.26
2023-07-12T12:28:02.438Z,53.45
2023-07-12T12:29:02.289Z,53.45
2023-07-12T12:30:03.105Z,52.37
2023-07-12T12:31:03.930Z,52.76
2023-07-12T12:32:06.509Z,53.45
2023-07-12T12:33:05.496Z,53.45
2023-07-12T12:34:05.982Z,52.76
2023-07-12T12:35:06.817Z,53.16
2023-07-12T12:36:07.636Z,53.53
2023-07-12T12:37:08.458Z,54.52
2023-07-12T12:38:09.282Z,55.61
2023-07-12T12:39:10.118Z,56.40
2023-07-12T12:40:10.942Z,56.11
2023-07-12T12:41:11.905Z,56.01
2023-07-12T12:42:12.334Z,55.91
2023-07-12T12:43:13.162Z,55.51
2023-07-12T12:44:13.987Z,56.11
2023-07-12T12:45:14.815Z,56.70
2023-07-12T12:47:20.115Z,58.91
2023-07-12T12:48:20.214Z,59.01
2023-07-12T12:53:27.035Z,59.01
2023-07-12T12:54:21.368Z,58.94
2023-07-12T12:58:34.229Z,60.16
2023-07-12T13:04:29.820Z,60.78
2023-07-12T13:04:50.217Z,60.88
2023-07-12T13:04:54.131Z,60.98
2023-07-12T13:05:33.996Z,61.28
2023-07-12T13:06:30.151Z,60.88
2023-07-12T13:07:44.946Z,61.48
2023-07-12T13:17:00.929Z,62.01
2023-07-12T13:18:09.565Z,61.91
2023-07-12T13:19:42.350Z,62.40
2023-07-12T13:20:40.870Z,61.91
2023-07-12T13:21:41.500Z,61.91
2023-07-12T13:22:41.928Z,62.10
2023-07-12T13:23:42.764Z,62.40